sensor_id;sensor_type;location;lat;lon;timestamp;pressure;altitude;pressure_sealevel;temperature;humidity
15558;BME280;7880;50.110;9.372;2023-04-28T00:00:32;8.762904847809114;;;8.625;100.0
15558;BME280;7880;50.110;9.372;2023-04-28T00:05:37;8.722567253396846;;;8.562;100.0
15558;BME280;7880;50.110;9.372;2023-04-28T00:10:48;8.692314069811255;;;8.562;100.0
15558;BME280;7880;50.110;9.372;2023-04-28T00:15:45;8.717525055404986;;;8.562;100.0
15558;BME280;7880;50.110;9.372;2023-04-28T00:20:48;8.646934314077953;;;8.437;100.0
15558;BME280;7880;50.110;9.372;2023-04-28T00:25:54;8.677187481947476;;;8.5;100.0
15558;BME280;7880;50.110;9.372;2023-04-28T00:30:57;8.757862647488945;;;8.625;100.0
15558;BME280;7880;50.110;9.372;2023-04-28T00:36:05;8.752820447459817;;;8.625;100.0
15558;BME280;7880;50.110;9.372;2023-04-28T00:41:24;8.788115853775526;;;8.625;100.0
15558;BME280;7880;50.110;9.372;2023-04-28T00:46:19;8.778031450515845;;;8.625;100.0
15558;BME280;7880;50.110;9.372;2023-04-28T00:51:21;8.646934314077953;;;8.562;100.0
15558;BME280;7880;50.110;9.372;2023-04-28T00:56:27;8.707440660294377;;;8.562;100.0
15558;BME280;7880;50.110;9.372;2023-04-28T01:01:31;8.722567253396846;;;8.625;100.0
15558;BME280;7880;50.110;9.372;2023-04-28T01:06:37;8.808284663787344;;;8.687;100.0
15558;BME280;7880;50.110;9.372;2023-04-28T01:11:38;8.717525055404986;;;8.625;100.0
15558;BME280;7880;50.110;9.372;2023-04-28T01:16:42;8.798200258199358;;;8.687;100.0
15558;BME280;7880;50.110;9.372;2023-04-28T01:21:59;8.692314069811255;;;8.562;100.0
15558;BME280;7880;50.110;9.372;2023-04-28T01:31:55;8.636849927116419;;;8.562;100.0
15558;BME280;7880;50.110;9.372;2023-04-28T01:37:04;8.667103091493482;;;8.562;100.0
15558;BME280;7880;50.110;9.372;2023-04-28T01:42:03;8.783073652000166;;;8.625;100.0
15558;BME280;7880;50.110;9.372;2023-04-28T01:47:07;8.566259250981966;;;8.5;100.0
15558;BME280;7880;50.110;9.372;2023-04-28T01:52:11;8.576343629794428;;;8.437;100.0
15558;BME280;7880;50.110;9.372;2023-04-28T01:57:15;8.621723348856904;;;8.437;100.0
15558;BME280;7880;50.110;9.372;2023-04-28T02:02:26;8.606596773216733;;;8.5;100.0
15558;BME280;7880;50.110;9.372;2023-04-28T02:07:22;8.641892120451667;;;8.5;100.0
15558;BME280;7880;50.110;9.372;2023-04-28T02:12:26;8.485584262391786;;;8.437;100.0
15558;BME280;7880;50.110;9.372;2023-04-28T02:17:30;8.510795188322664;;;8.375;100.0
15558;BME280;7880;50.110;9.372;2023-04-28T02:22:28;8.626765541319037;;;8.5;100.0
15558;BME280;7880;50.110;9.372;2023-04-28T02:27:30;8.556174873333656;;;8.437;100.0
15558;BME280;7880;50.110;9.372;2023-04-28T02:32:37;8.435162432357902;;;8.312;100.0
15558;BME280;7880;50.110;9.372;2023-04-28T02:37:40;8.52592174737365;;;8.375;100.0
15558;BME280;7880;50.110;9.372;2023-04-28T02:42:43;8.530963934306055;;;8.437;100.0
15558;BME280;7880;50.110;9.372;2023-04-28T02:47:48;8.591470200195909;;;8.5;100.0
15558;BME280;7880;50.110;9.372;2023-04-28T02:52:53;8.556174873333656;;;8.437;100.0
15558;BME280;7880;50.110;9.372;2023-04-28T02:57:56;8.65701870220364;;;8.5;100.0
15558;BME280;7880;50.110;9.372;2023-04-28T03:02:59;8.692314069811255;;;8.625;100.0
15558;BME280;7880;50.110;9.372;2023-04-28T03:08:04;8.52592174737365;;;8.437;100.0
15558;BME280;7880;50.110;9.372;2023-04-28T03:13:08;8.480542078078724;;;8.375;100.0
15558;BME280;7880;50.110;9.372;2023-04-28T03:18:18;8.288939289841801;;;8.125;100.0
15558;BME280;7880;50.110;9.372;2023-04-28T03:23:27;8.268770599737763;;;8.125;100.0
15558;BME280;7880;50.110;9.372;2023-04-28T03:28:22;8.193138053320581;;;8.0;100.0
15558;BME280;7880;50.110;9.372;2023-04-28T03:33:25;8.21330672596232;;;8.062;100.0
15558;BME280;7880;50.110;9.372;2023-04-28T03:38:38;8.132632063335041;;;8.062;100.0
15558;BME280;7880;50.110;9.372;2023-04-28T03:43:36;8.147758556902408;;;8.0;100.0
15558;BME280;7880;50.110;9.372;2023-04-28T03:48:48;8.12254773574532;;;7.937;100.0
15558;BME280;7880;50.110;9.372;2023-04-28T03:53:49;8.056999634788372;;;7.937;100.0
15558;BME280;7880;50.110;9.372;2023-04-28T03:59:02;8.036830998235382;;;7.875;100.0
15558;BME280;7880;50.110;9.372;2023-04-28T04:03:55;8.031788839824731;;;7.875;100.0
15558;BME280;7880;50.110;9.372;2023-04-28T04:08:59;7.905734974145889;;;7.75;100.0
15558;BME280;7880;50.110;9.372;2023-04-28T04:14:03;8.011620209092507;;;7.812;100.0
15558;BME280;7880;50.110;9.372;2023-04-28T04:19:06;8.021704523876542;;;7.812;100.0
15558;BME280;7880;50.110;9.372;2023-04-28T04:24:14;8.117505572387017;;;7.875;100.0
15558;BME280;7880;50.110;9.372;2023-04-28T04:29:17;8.051957475213566;;;7.875;100.0
15558;BME280;7880;50.110;9.372;2023-04-28T04:34:21;7.96119865263463;;;7.812;100.0
15558;BME280;7880;50.110;9.372;2023-04-28T04:39:27;7.951114344835514;;;7.75;100.0
15558;BME280;7880;50.110;9.372;2023-04-28T04:44:30;8.102379084058338;;;7.875;100.0
15558;BME280;7880;50.110;9.372;2023-04-28T04:49:36;8.12254773574532;;;7.937;100.0
15558;BME280;7880;50.110;9.372;2023-04-28T04:54:38;8.162885053089122;;;8.0;100.0
15558;BME280;7880;50.110;9.372;2023-04-28T04:59:42;8.036830998235382;;;7.937;100.0
15558;BME280;7880;50.110;9.372;2023-04-28T05:04:48;8.087252598349005;;;7.937;100.0
15558;BME280;7880;50.110;9.372;2023-04-28T05:09:51;8.132632063335041;;;7.937;100.0
15558;BME280;7880;50.110;9.372;2023-04-28T05:14:57;8.22339106402942;;;8.062;100.0
15558;BME280;7880;50.110;9.372;2023-04-28T05:19:58;8.162885053089122;;;8.0;100.0
15558;BME280;7880;50.110;9.372;2023-04-28T05:25:03;8.142716392088914;;;8.0;100.0
15558;BME280;7880;50.110;9.372;2023-04-28T05:30:09;8.21330672596232;;;8.062;100.0
15558;BME280;7880;50.110;9.372;2023-04-28T05:35:51;8.30406581047573;;;8.187;100.0
15558;BME280;7880;50.110;9.372;2023-04-28T05:40:50;8.35952974187676;;;8.25;100.0
15558;BME280;7880;50.110;9.372;2023-04-28T05:45:47;8.420035889022984;;;8.312;100.0
15558;BME280;7880;50.110;9.372;2023-04-28T05:50:53;8.394824989285553;;;8.312;100.0
15558;BME280;7880;50.110;9.372;2023-04-28T05:55:56;8.30406581047573;;;8.187;100.0
15558;BME280;7880;50.110;9.372;2023-04-28T06:01:01;8.394824989285553;;;8.25;100.0
15558;BME280;7880;50.110;9.372;2023-04-28T06:06:06;8.329276684019714;;;8.187;100.0
15558;BME280;7880;50.110;9.372;2023-04-28T06:11:10;8.319192333729006;;;8.187;100.0
15558;BME280;7880;50.110;9.372;2023-04-28T06:16:15;8.329276684019714;;;8.25;100.0
15558;BME280;7880;50.110;9.372;2023-04-28T06:21:31;8.435162432357902;;;8.25;100.0
15558;BME280;7880;50.110;9.372;2023-04-28T06:26:30;8.324234508728841;;;8.25;100.0
15558;BME280;7880;50.110;9.372;2023-04-28T06:31:40;8.389782810211182;;;8.187;100.0
15558;BME280;7880;50.110;9.372;2023-04-28T06:36:32;8.465415526885772;;;8.312;100.0
15558;BME280;7880;50.110;9.372;2023-04-28T06:41:34;8.399867168650962;;;8.25;100.0
15558;BME280;7880;50.110;9.372;2023-04-28T06:46:40;8.389782810211182;;;8.25;100.0
15558;BME280;7880;50.110;9.372;2023-04-28T06:51:44;8.515837374381954;;;8.312;100.0
15558;BME280;7880;50.110;9.372;2023-04-28T06:56:47;8.601554581918753;;;8.437;100.0
15558;BME280;7880;50.110;9.372;2023-04-28T07:01:51;8.641892120451667;;;8.5;100.0
15558;BME280;7880;50.110;9.372;2023-04-28T07:06:57;8.712482857704163;;;8.562;100.0
15558;BME280;7880;50.110;9.372;2023-04-28T07:12:04;8.722567253396846;;;8.5;100.0
15558;BME280;7880;50.110;9.372;2023-04-28T07:17:05;8.73769384911866;;;8.562;100.0
15558;BME280;7880;50.110;9.372;2023-04-28T07:22:09;8.722567253396846;;;8.562;100.0
15558;BME280;7880;50.110;9.372;2023-04-28T07:26:48;8.5360061215295;;;8.437;100.0
15558;BME280;7880;50.110;9.372;2023-04-28T07:31:53;8.697356266347924;;;8.625;100.0
15558;BME280;7880;50.110;9.372;2023-04-28T07:36:59;8.541048309043981;;;8.437;100.0
15558;BME280;7880;50.110;9.372;2023-04-28T07:42:05;8.677187481947476;;;8.562;100.0
15558;BME280;7880;50.110;9.372;2023-04-28T07:47:13;8.611638964805753;;;8.5;100.0
15558;BME280;7880;50.110;9.372;2023-04-28T07:52:20;8.546090496849502;;;8.437;100.0
15558;BME280;7880;50.110;9.372;2023-04-28T07:57:16;8.611638964805753;;;8.5;100.0
15558;BME280;7880;50.110;9.372;2023-04-28T08:02:21;8.823411274352111;;;8.625;100.0
15558;BME280;7880;50.110;9.372;2023-04-28T08:07:25;8.793158055841923;;;8.625;100.0
15558;BME280;7880;50.110;9.372;2023-04-28T08:12:29;9.181408488942543;;;9.062;100.0
15558;BME280;7880;50.110;9.372;2023-04-28T08:17:32;9.141070701280842;;;9.0;100.0
15558;BME280;7880;50.110;9.372;2023-04-28T08:22:39;8.984761950024403;;;8.875;100.0
15558;BME280;7880;50.110;9.372;2023-04-28T08:27:47;9.100732932245592;;;8.875;100.0
15558;BME280;7880;50.110;9.372;2023-04-28T08:32:48;8.873833328485489;;;8.75;100.0
15558;BME280;7880;50.110;9.372;2023-04-28T08:37:57;8.96963531151996;;;8.812;100.0
15558;BME280;7880;50.110;9.372;2023-04-28T08:42:56;9.125944035709836;;;8.937;100.0
15558;BME280;7880;50.110;9.372;2023-04-28T08:48:03;9.367970999167301;;;9.25;100.0
15558;BME280;7880;50.110;9.372;2023-04-28T08:53:06;9.171324040280888;;;9.0;100.0
15558;BME280;7880;50.110;9.372;2023-04-28T08:58:12;9.186450713709927;;;9.0;100.0
15558;BME280;7880;50.110;9.372;2023-04-28T09:03:27;9.241915205359692;;;9.062;100.0
15558;BME280;7880;50.110;9.372;2023-04-28T09:08:30;9.246957433619537;;;9.125;100.0
15558;BME280;7880;50.110;9.372;2023-04-28T09:13:35;9.342759825853864;;;9.187;100.0
15558;BME280;7880;50.110;9.372;2023-04-28T09:18:38;9.438562323153018;;;9.312;100.0
15558;BME280;7880;50.110;9.372;2023-04-28T09:23:46;9.473858006537194;;;9.375;100.0
15558;BME280;7880;50.110;9.372;2023-04-28T09:28:51;9.82681562472717;;;9.625;100.0
15558;BME280;7880;50.110;9.372;2023-04-28T09:33:59;9.67050564645324;;;9.5;100.0
15558;BME280;7880;50.110;9.372;2023-04-28T09:38:57;9.61504088268266;;;9.5;100.0
15558;BME280;7880;50.110;9.372;2023-04-28T09:44:09;9.725970445439453;;;9.562;100.0
15558;BME280;7880;50.110;9.372;2023-04-28T09:49:03;9.61504088268266;;;9.562;100.0
15558;BME280;7880;50.110;9.372;2023-04-28T09:54:07;9.917576385621214;;;9.75;100.0
15558;BME280;7880;50.110;9.372;2023-04-28T09:59:15;9.857069201214472;;;9.687;100.0
15558;BME280;7880;50.110;9.372;2023-04-28T10:04:20;9.973041341477074;;;9.75;100.0
15558;BME280;7880;50.110;9.372;2023-04-28T10:09:26;10.068844529992202;;;9.875;100.0
15558;BME280;7880;50.110;9.372;2023-04-28T10:14:29;10.023464059177787;;;9.875;100.0
15558;BME280;7880;50.110;9.372;2023-04-28T10:19:39;10.250366648990894;;;10.125;100.0
15558;BME280;7880;50.110;9.372;2023-04-28T10:24:49;10.441973739356035;;;10.312;100.0
15558;BME280;7880;50.110;9.372;2023-04-28T10:29:39;10.275578084238806;;;10.187;100.0
15558;BME280;7880;50.110;9.372;2023-04-28T10:34:47;10.351212433638285;;;10.187;100.0
15558;BME280;7880;50.110;9.372;2023-04-28T10:40:55;10.487354427576065;;;10.375;100.0
15558;BME280;7880;50.110;9.372;2023-04-28T10:45:59;10.431889145175228;;;10.25;100.0
15558;BME280;7880;50.110;9.372;2023-04-28T10:51:20;10.39155078009353;;;10.25;100.0
15558;BME280;7880;50.110;9.372;2023-04-28T10:56:04;10.452058334700997;;;10.312;100.0
15558;BME280;7880;50.110;9.372;2023-04-28T11:01:26;10.562988960329676;;;10.437;100.0
15558;BME280;7880;50.110;9.372;2023-04-28T11:06:23;10.537777442135848;;;10.437;100.0
15558;BME280;7880;50.110;9.372;2023-04-28T11:11:12;10.67896203773562;;;10.562;100.0
15558;BME280;7880;50.110;9.372;2023-04-28T11:16:18;10.694088972226018;;;10.562;100.0
15558;BME280;7880;50.110;9.372;2023-04-28T11:21:20;11.384888438344934;;;11.312;100.0
15558;BME280;7880;50.110;9.372;2023-04-28T11:26:24;11.278999114601174;;;11.187;100.0
15558;BME280;7880;50.110;9.372;2023-04-28T11:31:28;11.1932792798616;;;11.125;100.0
15558;BME280;7880;50.110;9.372;2023-04-28T11:36:36;11.566413291939535;;;11.375;100.0
15558;BME280;7880;50.110;9.372;2023-04-28T11:41:39;11.611794564273442;;;11.5;100.0
15558;BME280;7880;50.110;9.372;2023-04-28T11:46:44;11.571455654368037;;;11.5;100.0
15558;BME280;7880;50.110;9.372;2023-04-28T11:51:48;11.541201484162594;;;11.5;100.0
15558;BME280;7880;50.110;9.372;2023-04-28T11:56:57;11.7075995499501;;;11.625;100.0
15558;BME280;7880;50.110;9.372;2023-04-28T12:01:56;11.692472439963604;;;11.625;100.0
15558;BME280;7880;50.110;9.372;2023-04-28T12:07:01;12.055523802578682;;;11.937;100.0
15558;BME280;7880;50.110;9.372;2023-04-28T12:12:09;12.055523802578682;;;12.062;100.0
15558;BME280;7880;50.110;9.372;2023-04-28T12:17:22;12.186626054305815;;;12.125;100.0
15558;BME280;7880;50.110;9.372;2023-04-28T12:22:17;12.131159693025984;;;12.062;100.0
15558;BME280;7880;50.110;9.372;2023-04-28T12:27:21;12.529509796673665;;;12.437;100.0
15558;BME280;7880;50.110;9.372;2023-04-28T12:31:08;12.75137646473595;;;12.625;100.0
15558;BME280;7880;50.110;9.372;2023-04-28T12:36:12;13.154771850217367;;;13.0;100.0
15558;BME280;7880;50.110;9.372;2023-04-28T12:41:15;13.32117298936937;;;13.312;100.0
15558;BME280;7880;50.110;9.372;2023-04-28T12:46:20;13.174941668385873;;;13.187;100.0
15558;BME280;7880;50.110;9.372;2023-04-28T12:51:29;13.563211575732566;;;13.5;100.0
15558;BME280;7880;50.110;9.372;2023-04-28T12:56:32;13.573296531382947;;;13.562;100.0
15558;BME280;7880;50.110;9.372;2023-04-28T13:01:35;13.971653210750082;;;13.937;100.0
15558;BME280;7880;50.110;9.372;2023-04-28T13:06:39;14.082588305562968;;;14.125;100.0
15558;BME280;7880;50.110;9.372;2023-04-28T13:11:42;14.566670367732877;;;14.562;100.0
15558;BME280;7880;50.110;9.372;2023-04-28T13:16:47;14.420436962042004;;;14.562;100.0
15558;BME280;7880;50.110;9.372;2023-04-28T13:21:49;14.375054230733076;;;14.437;100.0
15558;BME280;7880;50.110;9.372;2023-04-28T13:26:55;14.465819716925035;;;14.562;100.0
15558;BME280;7880;50.110;9.372;2023-04-28T13:32:00;14.334714044915746;;;14.437;100.0
15558;BME280;7880;50.110;9.372;2023-04-28T13:37:09;14.445649600733304;;;14.437;100.0
15558;BME280;7880;50.110;9.372;2023-04-28T13:42:08;14.314543958992;;;14.25;100.0
15558;BME280;7880;50.110;9.372;2023-04-28T13:47:11;14.531372626707888;;;14.562;100.0
15558;BME280;7880;50.110;9.372;2023-04-28T13:52:16;14.733074196078814;;;14.687;100.0
15558;BME280;7880;50.110;9.372;2023-04-28T13:57:19;15.030584860878298;;;15.0;100.0
15558;BME280;7880;50.110;9.372;2023-04-28T14:02:26;15.318011380569079;;;15.375;100.0
15558;BME280;7880;50.110;9.372;2023-04-28T14:07:30;15.34322427828447;;;15.5;100.0
15558;BME280;7880;50.110;9.372;2023-04-28T14:12:34;15.353309439407894;;;15.5;100.0
15558;BME280;7880;50.110;9.372;2023-04-28T14:18:02;15.222202435607324;;;15.25;100.0
15558;BME280;7880;50.110;9.372;2023-04-28T14:22:54;15.040669985912974;;;15.062;100.0
15558;BME280;7880;50.110;9.372;2023-04-28T14:27:53;14.879308125056559;;;14.937;100.0
15558;BME280;7880;50.110;9.372;2023-04-28T14:32:51;14.707861474441597;;;14.812;100.0
15558;BME280;7880;50.110;9.372;2023-04-28T14:37:56;14.803669855371117;;;14.812;100.0
15558;BME280;7880;50.110;9.372;2023-04-28T14:43:05;14.869223018648336;;;14.875;100.0
15558;BME280;7880;50.110;9.372;2023-04-28T14:48:13;14.728031651169294;;;14.812;100.0
15558;BME280;7880;50.110;9.372;2023-04-28T14:53:12;14.74315928677097;;;14.75;100.0
15558;BME280;7880;50.110;9.372;2023-04-28T14:58:15;14.581797975394874;;;14.625;100.0
15558;BME280;7880;50.110;9.372;2023-04-28T15:03:24;14.556585297413402;;;14.562;100.0
15558;BME280;7880;50.110;9.372;2023-04-28T15:08:27;14.526330093439901;;;14.5;100.0
15558;BME280;7880;50.110;9.372;2023-04-28T15:13:31;14.43556454438367;;;14.437;100.0
15558;BME280;7880;50.110;9.372;2023-04-28T15:18:40;14.425479489198187;;;14.437;100.0
15558;BME280;7880;50.110;9.372;2023-04-28T15:23:39;14.420436962042004;;;14.375;100.0
15558;BME280;7880;50.110;9.372;2023-04-28T15:28:43;14.319586480036378;;;14.312;100.0
15558;BME280;7880;50.110;9.372;2023-04-28T15:33:53;14.274203801114345;;;14.187;100.0
15558;BME280;7880;50.110;9.372;2023-04-28T15:38:54;14.415394435176859;;;14.25;100.0
15558;BME280;7880;50.110;9.372;2023-04-28T15:44:01;14.51624502777704;;;14.375;100.0
15558;BME280;7880;50.110;9.372;2023-04-28T15:49:11;14.470862246700563;;;14.437;100.0
15558;BME280;7880;50.110;9.372;2023-04-28T15:54:08;14.415394435176859;;;14.375;100.0
15558;BME280;7880;50.110;9.372;2023-04-28T15:59:15;14.521287560462952;;;14.437;100.0
15558;BME280;7880;50.110;9.372;2023-04-28T16:04:23;14.526330093439901;;;14.5;100.0
15558;BME280;7880;50.110;9.372;2023-04-28T16:09:23;14.546500228258083;;;14.5;100.0
15558;BME280;7880;50.110;9.372;2023-04-28T16:14:24;14.637265892565484;;;14.562;100.0
15558;BME280;7880;50.110;9.372;2023-04-28T16:19:28;14.818797504069517;;;14.687;100.0
15558;BME280;7880;50.110;9.372;2023-04-28T16:24:41;14.692733844951727;;;14.687;100.0
15558;BME280;7880;50.110;9.372;2023-04-28T16:29:45;14.753244378627278;;;14.687;100.0
15558;BME280;7880;50.110;9.372;2023-04-28T16:34:41;14.728031651169294;;;14.75;100.0
15558;BME280;7880;50.110;9.372;2023-04-28T16:39:47;14.54145769411698;;;14.562;100.0
15558;BME280;7880;50.110;9.372;2023-04-28T16:44:51;14.491032368713059;;;14.5;100.0
15558;BME280;7880;50.110;9.372;2023-04-28T16:49:55;14.496074899943778;;;14.5;100.0
15558;BME280;7880;50.110;9.372;2023-04-28T16:55:01;14.480947307124733;;;14.437;100.0
15558;BME280;7880;50.110;9.372;2023-04-28T17:00:14;14.440607072412968;;;14.375;100.0
15558;BME280;7880;50.110;9.372;2023-04-28T17:05:11;14.455734658247092;;;14.375;100.0
15558;BME280;7880;50.110;9.372;2023-04-28T17:10:22;14.455734658247092;;;14.437;100.0
15558;BME280;7880;50.110;9.372;2023-04-28T17:15:20;14.485989837773378;;;14.437;100.0
15558;BME280;7880;50.110;9.372;2023-04-28T17:20:26;14.692733844951727;;;14.625;100.0
15558;BME280;7880;50.110;9.372;2023-04-28T17:25:38;14.697776387823978;;;14.687;100.0
15558;BME280;7880;50.110;9.372;2023-04-28T17:30:50;14.71794656222337;;;14.687;100.0
15558;BME280;7880;50.110;9.372;2023-04-28T17:35:19;14.728031651169294;;;14.75;100.0
15558;BME280;7880;50.110;9.372;2023-04-28T17:40:23;14.642308432236314;;;14.625;100.0
15558;BME280;7880;50.110;9.372;2023-04-28T17:45:27;14.460777187440545;;;14.437;100.0
15558;BME280;7880;50.110;9.372;2023-04-28T17:50:37;14.304458917776355;;;14.25;100.0
15558;BME280;7880;50.110;9.372;2023-04-28T17:55:35;14.304458917776355;;;14.25;100.0
15558;BME280;7880;50.110;9.372;2023-04-28T18:00:41;14.213693599222461;;;14.187;100.0
15558;BME280;7880;50.110;9.372;2023-04-28T18:05:46;14.1430984166509;;;14.062;100.0
15558;BME280;7880;50.110;9.372;2023-04-28T18:10:50;14.112843355868245;;;14.062;100.0
15558;BME280;7880;50.110;9.372;2023-04-28T18:15:56;14.01199322892935;;;14.0;100.0
15558;BME280;7880;50.110;9.372;2023-04-28T18:20:59;13.790123359445715;;;13.75;100.0
15558;BME280;7880;50.110;9.372;2023-04-28T18:26:05;13.679188635997708;;;13.562;100.0
15558;BME280;7880;50.110;9.372;2023-04-28T18:31:06;13.527914240123938;;;13.437;100.0
15558;BME280;7880;50.110;9.372;2023-04-28T18:36:12;13.331257917080075;;;13.312;100.0
15558;BME280;7880;50.110;9.372;2023-04-28T18:41:17;13.22536623417982;;;13.125;100.0
15558;BME280;7880;50.110;9.372;2023-04-28T18:46:26;13.03879548611585;;;12.875;100.0
15558;BME280;7880;50.110;9.372;2023-04-28T18:54:10;12.680782463779906;;;12.562;100.0
15558;BME280;7880;50.110;9.372;2023-04-28T18:59:04;12.474043217697181;;;12.187;100.0
15558;BME280;7880;50.110;9.372;2023-04-28T19:04:09;12.519424961513142;;;12.312;100.0
15558;BME280;7880;50.110;9.372;2023-04-28T19:09:21;12.479085632512579;;;12.187;100.0
15558;BME280;7880;50.110;9.372;2023-04-28T19:14:20;12.136202088050776;;;11.875;100.0
15558;BME280;7880;50.110;9.372;2023-04-28T19:19:23;12.065608584188158;;;11.75;100.0
15558;BME280;7880;50.110;9.372;2023-04-28T19:24:30;11.954676050512353;;;11.687;100.0
15558;BME280;7880;50.110;9.372;2023-04-28T19:29:32;11.939548897743226;;;11.625;100.0
15558;BME280;7880;50.110;9.372;2023-04-28T19:34:38;11.964760820480297;;;11.687;100.0
15558;BME280;7880;50.110;9.372;2023-04-28T19:39:43;11.823574146867031;;;11.562;100.0
15558;BME280;7880;50.110;9.372;2023-04-28T19:44:53;11.722726662555942;;;11.5;100.0
15558;BME280;7880;50.110;9.372;2023-04-28T19:49:54;11.76306564231054;;;11.562;100.0
15558;BME280;7880;50.110;9.372;2023-04-28T19:55:07;11.551286206400254;;;11.375;100.0
15558;BME280;7880;50.110;9.372;2023-04-28T20:00:01;11.637006392423064;;;11.375;100.0
15558;BME280;7880;50.110;9.372;2023-04-28T20:05:16;11.546243845135905;;;11.25;100.0
15558;BME280;7880;50.110;9.372;2023-04-28T20:10:21;11.314295541588217;;;11.0;100.0
15558;BME280;7880;50.110;9.372;2023-04-28T20:15:25;11.173109919205308;;;10.875;100.0
15558;BME280;7880;50.110;9.372;2023-04-28T20:20:43;11.26891442379565;;;10.937;100.0
15558;BME280;7880;50.110;9.372;2023-04-28T20:25:42;11.147898224933305;;;10.875;100.0
15558;BME280;7880;50.110;9.372;2023-04-28T20:30:39;10.835273820447037;;;10.562;100.0
15558;BME280;7880;50.110;9.372;2023-04-28T20:35:45;10.739469791413285;;;10.5;100.0
15558;BME280;7880;50.110;9.372;2023-04-28T20:40:50;10.719300535530783;;;10.5;100.0
15558;BME280;7880;50.110;9.372;2023-04-28T20:45:54;10.72434284906485;;;10.437;100.0
15558;BME280;7880;50.110;9.372;2023-04-28T20:51:00;10.562988960329676;;;10.25;100.0
15558;BME280;7880;50.110;9.372;2023-04-28T20:56:04;10.441973739356035;;;10.125;100.0
15558;BME280;7880;50.110;9.372;2023-04-28T21:01:16;10.502481328888098;;;10.125;100.0
15558;BME280;7880;50.110;9.372;2023-04-28T21:06:18;10.376423897990026;;;10.125;100.0
15558;BME280;7880;50.110;9.372;2023-04-28T21:11:24;10.46214293121011;;;10.187;100.0
15558;BME280;7880;50.110;9.372;2023-04-28T21:16:26;10.260451222216943;;;10.0;100.0
15558;BME280;7880;50.110;9.372;2023-04-28T21:21:33;11.223533329577185;;;10.812;100.0
15558;BME280;7880;50.110;9.372;2023-04-28T21:26:37;11.803404640691587;;;11.687;100.0
15558;BME280;7880;50.110;9.372;2023-04-28T21:31:42;12.055523802578682;;;12.0;100.0
15558;BME280;7880;50.110;9.372;2023-04-28T21:36:46;12.131159693025984;;;12.187;100.0
15558;BME280;7880;50.110;9.372;2023-04-28T21:41:52;12.116032509697835;;;12.187;100.0
15558;BME280;7880;50.110;9.372;2023-04-28T21:47:03;12.075693366961787;;;12.125;100.0
15558;BME280;7880;50.110;9.372;2023-04-28T21:51:58;12.040396632347257;;;12.062;100.0
15558;BME280;7880;50.110;9.372;2023-04-28T21:57:02;11.964760820480297;;;12.0;100.0
15558;BME280;7880;50.110;9.372;2023-04-28T22:02:06;11.949633665964939;;;12.0;100.0
15558;BME280;7880;50.110;9.372;2023-04-28T22:07:10;11.899209836497903;;;11.937;100.0
15558;BME280;7880;50.110;9.372;2023-04-28T22:12:18;11.873997932678321;;;11.875;100.0
15558;BME280;7880;50.110;9.372;2023-04-28T22:17:19;11.798362264875323;;;11.812;100.0
15558;BME280;7880;50.110;9.372;2023-04-28T22:22:23;11.672302964056144;;;11.687;100.0
15558;BME280;7880;50.110;9.372;2023-04-28T22:27:32;12.065608584188158;;;12.062;100.0
15558;BME280;7880;50.110;9.372;2023-04-28T22:32:47;11.692472439963604;;;11.75;100.0
15558;BME280;7880;50.110;9.372;2023-04-28T22:37:48;11.60170983505086;;;11.562;100.0
15558;BME280;7880;50.110;9.372;2023-04-28T22:41:34;11.551286206400254;;;11.5;100.0
15558;BME280;7880;50.110;9.372;2023-04-28T22:46:40;11.39497314253822;;;11.375;100.0
15558;BME280;7880;50.110;9.372;2023-04-28T22:51:44;11.294126152992249;;;11.187;100.0
15558;BME280;7880;50.110;9.372;2023-04-28T22:56:46;11.168067579768831;;;11.0;100.0
15558;BME280;7880;50.110;9.372;2023-04-28T23:01:57;11.183194598951378;;;11.062;100.0
15558;BME280;7880;50.110;9.372;2023-04-28T23:06:54;11.087390188366408;;;10.875;100.0
15558;BME280;7880;50.110;9.372;2023-04-28T23:12:00;10.8756123904197;;;10.75;100.0
15558;BME280;7880;50.110;9.372;2023-04-28T23:17:05;10.946204932691762;;;10.687;100.0
15558;BME280;7880;50.110;9.372;2023-04-28T23:22:08;10.850400782003998;;;10.625;100.0
15558;BME280;7880;50.110;9.372;2023-04-28T23:27:13;10.739469791413285;;;10.5;100.0
15558;BME280;7880;50.110;9.372;2023-04-28T23:32:23;10.673919726820895;;;10.5;100.0
15558;BME280;7880;50.110;9.372;2023-04-28T23:37:21;10.68400434894138;;;10.437;100.0
15558;BME280;7880;50.110;9.372;2023-04-28T23:42:26;10.457100632810034;;;10.25;100.0
15558;BME280;7880;50.110;9.372;2023-04-28T23:47:31;10.39155078009353;;;10.187;100.0
15558;BME280;7880;50.110;9.372;2023-04-28T23:52:38;10.421804552158573;;;10.187;100.0
15558;BME280;7880;50.110;9.372;2023-04-28T23:57:41;10.441973739356035;;;10.25;100.0
